Time;durP1;ratioP1;P1;durP2;ratioP2;P2;SDS_P1;SDS_P2;PMS_P1;PMS_P2;Temp;Humidity;BMP_temperature;BMP_pressure;BME280_temperature;BME280_humidity;BME280_pressure;Samples;Min_cycle;Max_cycle;Signal;HPM_P1;HPM_P2
2022/12/06 00:01:16;;;;;;;1.15;1.05;;;20.40;53.60;;;;;;5041843;28;44065;-65
2022/12/06 00:03:45;;;;;;;1.02;0.93;;;20.40;53.70;;;;;;5031587;28;43510;-66
2022/12/06 00:06:16;;;;;;;2.70;1.10;;;20.40;53.60;;;;;;5022161;28;43610;-65
2022/12/06 00:08:45;;;;;;;0.80;0.80;;;20.40;53.70;;;;;;5036747;28;43923;-66
2022/12/06 00:11:18;;;;;;;1.13;0.93;;;20.40;53.70;;;;;;5038969;28;43928;-65
2022/12/06 00:13:46;;;;;;;1.00;0.90;;;20.40;53.70;;;;;;5030254;28;43982;-65
2022/12/06 00:16:15;;;;;;;0.90;0.90;;;20.40;53.70;;;;;;5041522;28;43438;-65
2022/12/06 00:18:45;;;;;;;1.00;0.77;;;20.40;53.70;;;;;;5040957;28;44010;-65
2022/12/06 00:21:22;;;;;;;0.80;0.80;;;20.30;53.70;;;;;;5041662;28;44016;-65
2022/12/06 00:23:52;;;;;;;0.93;0.80;;;20.30;53.70;;;;;;5040510;28;43379;-65
2022/12/06 00:26:20;;;;;;;0.90;0.85;;;20.30;53.70;;;;;;5041799;28;43420;-65
2022/12/06 00:28:50;;;;;;;0.77;0.77;;;20.30;53.70;;;;;;5041105;28;44876;-65
2022/12/06 00:31:19;;;;;;;0.70;0.70;;;20.30;53.70;;;;;;5041101;28;43946;-65
2022/12/06 00:33:47;;;;;;;1.77;1.10;;;20.30;53.70;;;;;;5041344;28;43448;-65
2022/12/06 00:36:26;;;;;;;1.20;0.80;;;20.30;53.70;;;;;;5042196;28;43454;-65
2022/12/06 00:38:53;;;;;;;0.77;0.77;;;20.30;53.70;;;;;;5036718;28;44199;-65
2022/12/06 00:41:23;;;;;;;0.65;0.65;;;20.30;53.70;;;;;;5030404;28;44189;-65
2022/12/06 00:43:51;;;;;;;1.65;0.85;;;20.30;53.70;;;;;;5041063;28;43414;-65
2022/12/06 00:46:24;;;;;;;0.82;0.73;;;20.30;53.70;;;;;;5041659;28;43507;-65
2022/12/06 00:48:55;;;;;;;0.60;0.60;;;20.20;53.60;;;;;;5040920;28;44978;-65
2022/12/06 00:51:25;;;;;;;0.77;0.68;;;20.20;53.70;;;;;;5041019;28;43399;-65
2022/12/06 00:53:52;;;;;;;0.97;0.90;;;20.20;53.70;;;;;;5041051;28;43435;-65
2022/12/06 00:56:20;;;;;;;0.73;0.60;;;20.20;53.70;;;;;;5041427;28;43420;-65
2022/12/06 00:58:47;;;;;;;1.08;0.82;;;20.20;53.70;;;;;;5040204;28;44634;-65
2022/12/06 01:01:20;;;;;;;1.52;0.80;;;20.20;53.70;;;;;;5041064;28;43390;-65
2022/12/06 01:03:53;;;;;;;0.60;0.60;;;20.10;53.70;;;;;;5029610;28;43436;-66
2022/12/06 01:06:26;;;;;;;0.50;0.50;;;20.10;53.70;;;;;;5040576;28;43421;-65
2022/12/06 01:08:55;;;;;;;0.80;0.60;;;20.10;53.70;;;;;;5040535;28;44966;-65
2022/12/06 01:11:24;;;;;;;0.70;0.70;;;20.10;53.70;;;;;;5034028;28;43442;-65
2022/12/06 01:13:52;;;;;;;0.68;0.60;;;20.10;53.70;;;;;;5038075;28;43382;-65
2022/12/06 01:16:22;;;;;;;0.60;0.60;;;20.10;53.70;;;;;;5041690;28;43709;-65
2022/12/06 01:18:55;;;;;;;0.60;0.60;;;20.10;53.80;;;;;;5033260;28;44948;-65
2022/12/06 01:21:23;;;;;;;1.33;0.60;;;20.10;53.80;;;;;;5022150;28;43778;-65
2022/12/06 01:23:53;;;;;;;0.50;0.47;;;20.10;53.80;;;;;;5039597;28;43388;-65
2022/12/06 01:26:22;;;;;;;0.68;0.68;;;20.10;53.80;;;;;;5040996;28;43451;-65
2022/12/06 01:28:50;;;;;;;0.60;0.55;;;20.10;53.90;;;;;;5040702;28;43960;-65
2022/12/06 01:31:17;;;;;;;1.17;0.52;;;20.10;53.90;;;;;;5041128;28;43432;-65
2022/12/06 01:33:44;;;;;;;0.60;0.52;;;20.00;53.80;;;;;;5041181;28;43530;-66
2022/12/06 01:36:19;;;;;;;0.68;0.50;;;20.00;53.80;;;;;;5044312;28;43406;-65
2022/12/06 01:38:52;;;;;;;0.70;0.70;;;20.00;53.80;;;;;;5044094;28;44672;-65
2022/12/06 01:41:22;;;;;;;0.68;0.68;;;20.00;53.80;;;;;;5044099;28;43500;-65
2022/12/06 01:43:50;;;;;;;0.98;0.70;;;20.00;53.80;;;;;;5029180;28;43976;-65
2022/12/06 01:46:26;;;;;;;1.08;0.68;;;20.00;53.80;;;;;;5044508;28;43451;-65
2022/12/06 01:49:23;;;;;;;0.65;0.63;;;20.00;53.90;;;;;;5043525;28;45153;-66
2022/12/06 01:52:00;;;;;;;0.55;0.55;;;20.00;53.90;;;;;;5032507;28;45407;-66
2022/12/06 01:54:28;;;;;;;0.98;0.88;;;19.90;53.80;;;;;;5035517;28;43399;-66
2022/12/06 01:56:56;;;;;;;0.50;0.50;;;19.90;53.90;;;;;;5044375;28;43538;-65
2022/12/06 01:59:25;;;;;;;0.45;0.40;;;19.90;53.90;;;;;;5043604;28;43893;-66
2022/12/06 02:01:53;;;;;;;0.52;0.52;;;19.90;53.90;;;;;;5043764;28;43454;-65
2022/12/06 02:04:21;;;;;;;0.85;0.50;;;19.90;53.90;;;;;;5039709;28;43412;-65
2022/12/06 02:06:51;;;;;;;0.88;0.60;;;19.90;53.80;;;;;;5043671;28;43419;-65
2022/12/06 02:09:19;;;;;;;0.52;0.47;;;19.90;53.90;;;;;;5039542;28;43930;-65
2022/12/06 02:11:47;;;;;;;0.50;0.50;;;19.90;53.90;;;;;;5034055;28;43942;-65
2022/12/06 02:14:18;;;;;;;0.90;0.50;;;19.90;53.90;;;;;;5044122;28;43987;-65
2022/12/06 02:17:00;;;;;;;0.43;0.40;;;19.90;53.90;;;;;;5043724;28;43502;-65
2022/12/06 02:19:33;;;;;;;0.98;0.88;;;19.80;53.80;;;;;;5043325;28;43995;-65
2022/12/06 02:22:32;;;;;;;0.50;0.50;;;19.80;53.80;;;;;;5043827;28;43409;-65
2022/12/06 02:24:59;;;;;;;0.43;0.30;;;19.80;53.80;;;;;;5028183;28;43316;-65
2022/12/06 02:27:57;;;;;;;0.60;0.60;;;19.80;53.90;;;;;;5043862;28;43421;-65
2022/12/06 02:30:34;;;;;;;0.98;0.60;;;19.80;53.90;;;;;;5042664;28;44925;-65
2022/12/06 02:33:21;;;;;;;1.60;0.90;;;19.80;53.90;;;;;;5028481;28;43404;-65
2022/12/06 02:36:06;;;;;;;0.50;0.50;;;19.80;53.90;;;;;;5024349;28;43959;-65
2022/12/06 02:38:48;;;;;;;0.30;0.30;;;19.80;54.00;;;;;;5041841;28;43511;-65
2022/12/06 02:41:42;;;;;;;0.50;0.50;;;19.80;54.00;;;;;;5043319;28;43836;-65
2022/12/06 02:44:19;;;;;;;0.50;0.50;;;19.70;53.90;;;;;;5042793;28;43511;-65
2022/12/06 02:46:49;;;;;;;0.40;0.40;;;19.70;54.00;;;;;;5026808;28;43464;-65
2022/12/06 02:49:18;;;;;;;0.45;0.45;;;19.70;53.90;;;;;;5043194;28;43404;-65
2022/12/06 02:51:47;;;;;;;0.50;0.50;;;19.70;53.90;;;;;;5043129;28;43893;-65
2022/12/06 02:54:16;;;;;;;0.73;0.43;;;19.70;53.90;;;;;;5042764;28;43498;-65
2022/12/06 02:56:43;;;;;;;0.63;0.60;;;19.70;53.90;;;;;;5043602;28;43526;-65
2022/12/06 02:59:11;;;;;;;0.45;0.30;;;19.70;53.90;;;;;;5042722;28;43491;-65
2022/12/06 03:01:45;;;;;;;0.80;0.68;;;19.70;53.90;;;;;;5043264;28;44892;-65
2022/12/06 03:04:30;;;;;;;0.47;0.40;;;19.70;53.90;;;;;;5039926;28;43812;-65
2022/12/06 03:07:23;;;;;;;0.28;0.28;;;19.70;54.00;;;;;;5031816;28;43403;-65
2022/12/06 03:10:01;;;;;;;0.45;0.40;;;19.70;54.00;;;;;;5039668;28;43969;-65
2022/12/06 03:12:29;;;;;;;0.50;0.50;;;19.60;53.90;;;;;;5032731;28;44059;-65
2022/12/06 03:14:59;;;;;;;0.30;0.30;;;19.60;54.00;;;;;;5042975;28;43430;-65
2022/12/06 03:17:54;;;;;;;0.40;0.40;;;19.60;54.00;;;;;;5036053;28;43445;-65
2022/12/06 03:20:41;;;;;;;0.40;0.38;;;19.60;54.00;;;;;;5042089;28;43554;-65
2022/12/06 03:23:24;;;;;;;0.32;0.32;;;19.60;54.00;;;;;;5021565;28;45218;-65
2022/12/06 03:25:54;;;;;;;0.40;0.20;;;19.60;54.00;;;;;;5025949;28;43415;-65
2022/12/06 03:28:21;;;;;;;0.40;0.40;;;19.60;54.00;;;;;;5042539;28;44050;-64
2022/12/06 03:30:52;;;;;;;0.38;0.38;;;19.60;54.00;;;;;;5042653;28;43395;-65
2022/12/06 03:33:25;;;;;;;0.40;0.38;;;19.60;54.00;;;;;;5041682;28;44734;-65
2022/12/06 03:35:54;;;;;;;0.47;0.40;;;19.60;54.00;;;;;;5026886;28;43832;-65
2022/12/06 03:38:39;;;;;;;0.30;0.30;;;19.50;54.00;;;;;;5042364;28;44081;-64
2022/12/06 03:41:08;;;;;;;0.30;0.30;;;19.50;54.00;;;;;;5042062;28;43432;-64
2022/12/06 03:43:35;;;;;;;0.50;0.40;;;19.50;54.00;;;;;;5038442;28;44911;-65
2022/12/06 03:46:19;;;;;;;0.50;0.35;;;19.50;54.00;;;;;;5030150;28;43451;-64
2022/12/06 03:48:52;;;;;;;0.50;0.30;;;19.50;54.00;;;;;;5035073;28;43366;-64
2022/12/06 03:51:31;;;;;;;0.32;0.30;;;19.50;54.00;;;;;;5025116;28;43447;-65
2022/12/06 03:54:03;;;;;;;0.43;0.43;;;19.50;54.00;;;;;;5041632;28;43891;-65
2022/12/06 03:56:31;;;;;;;0.30;0.30;;;19.50;54.00;;;;;;5041691;28;43893;-64
2022/12/06 03:58:59;;;;;;;0.40;0.40;;;19.50;54.00;;;;;;5042008;28;43585;-64
2022/12/06 04:01:26;;;;;;;0.30;0.30;;;19.50;53.90;;;;;;5022034;28;43439;-65
2022/12/06 04:03:54;;;;;;;0.50;0.50;;;19.50;53.90;;;;;;5033586;28;44768;-65
2022/12/06 04:06:21;;;;;;;0.35;0.35;;;19.50;53.90;;;;;;5040981;28;43669;-65
2022/12/06 04:08:48;;;;;;;0.35;0.28;;;19.50;53.90;;;;;;5040994;28;43432;-65
2022/12/06 04:11:16;;;;;;;0.52;0.32;;;19.50;53.90;;;;;;5023624;28;43482;-65
2022/12/06 04:13:43;;;;;;;0.30;0.30;;;19.40;53.80;;;;;;5030239;28;45028;-65
2022/12/06 04:18:56;;;;;;;0.40;0.40;;;19.40;53.80;;;;;;5041810;28;43447;-65
2022/12/06 04:24:01;;;;;;;0.50;0.45;;;19.40;53.80;;;;;;5033968;28;44764;-65
2022/12/06 04:26:28;;;;;;;0.32;0.32;;;19.40;53.80;;;;;;5041049;28;43441;-65
2022/12/06 04:40:00;;;;;;;0.80;0.40;;;19.30;53.90;;;;;;5041498;28;43480;-65
2022/12/06 04:45:13;;;;;;;0.22;0.22;;;19.30;53.80;;;;;;5032902;28;43990;-64
2022/12/06 04:47:40;;;;;;;0.30;0.30;;;19.30;53.90;;;;;;5040878;28;44083;-65
2022/12/06 04:50:08;;;;;;;0.88;0.40;;;19.30;53.90;;;;;;5039920;28;43382;-65
2022/12/06 04:52:35;;;;;;;0.40;0.40;;;19.30;53.90;;;;;;5040891;28;43518;-65
2022/12/06 04:55:04;;;;;;;0.65;0.40;;;19.30;53.90;;;;;;5041486;28;44005;-65
2022/12/06 04:57:31;;;;;;;0.40;0.20;;;19.30;53.90;;;;;;5040534;28;43987;-65
2022/12/06 04:59:58;;;;;;;0.63;0.40;;;19.20;53.90;;;;;;5040881;28;43534;-65
2022/12/06 05:02:26;;;;;;;0.40;0.40;;;19.20;53.80;;;;;;5041183;28;43445;-65
2022/12/06 05:04:53;;;;;;;0.20;0.20;;;19.30;53.90;;;;;;5021055;28;43889;-65
2022/12/06 05:07:20;;;;;;;0.40;0.35;;;19.20;53.80;;;;;;5033376;28;43535;-65
2022/12/06 05:09:48;;;;;;;1.15;0.50;;;19.20;53.90;;;;;;5027696;28;43479;-65
2022/12/06 05:12:15;;;;;;;0.50;0.50;;;19.20;53.90;;;;;;5034999;28;43368;-65
2022/12/06 05:14:42;;;;;;;0.30;0.30;;;19.20;53.90;;;;;;5043909;28;43837;-65
2022/12/06 05:17:09;;;;;;;0.93;0.30;;;19.20;53.90;;;;;;5044623;28;43464;-65
2022/12/06 05:19:37;;;;;;;0.47;0.47;;;19.20;53.90;;;;;;5043771;28;43522;-65
2022/12/06 05:22:04;;;;;;;0.40;0.40;;;19.10;53.80;;;;;;5044654;28;43447;-65
2022/12/06 05:24:31;;;;;;;0.38;0.38;;;19.20;53.90;;;;;;5043996;28;43976;-65
2022/12/06 05:26:58;;;;;;;0.38;0.38;;;19.10;53.80;;;;;;5044341;28;43891;-65
2022/12/06 05:29:26;;;;;;;0.32;0.32;;;19.10;53.80;;;;;;5043781;28;43384;-65
2022/12/06 05:31:53;;;;;;;0.30;0.30;;;19.10;53.80;;;;;;5024518;28;43473;-65
2022/12/06 05:34:20;;;;;;;0.55;0.40;;;19.10;53.80;;;;;;5032485;28;44748;-65
2022/12/06 05:36:48;;;;;;;0.30;0.30;;;19.10;53.80;;;;;;5031990;28;43891;-65
2022/12/06 05:39:16;;;;;;;0.50;0.30;;;19.10;53.80;;;;;;5040031;28;43430;-65
2022/12/06 05:41:43;;;;;;;0.68;0.40;;;19.10;53.80;;;;;;5036094;28;43507;-65
2022/12/06 05:44:11;;;;;;;0.30;0.30;;;19.00;53.80;;;;;;5032178;28;44756;-65
2022/12/06 05:46:38;;;;;;;0.30;0.30;;;19.00;53.80;;;;;;5043729;28;44038;-65
2022/12/06 05:49:05;;;;;;;0.47;0.40;;;19.00;53.80;;;;;;5043693;28;43402;-65
2022/12/06 05:51:33;;;;;;;0.20;0.20;;;19.00;53.80;;;;;;5024558;28;43504;-65
2022/12/06 05:54:03;;;;;;;0.30;0.30;;;19.00;53.80;;;;;;5032118;28;45087;-65
2022/12/06 05:56:31;;;;;;;0.35;0.30;;;19.00;53.80;;;;;;5043603;28;43946;-65
2022/12/06 05:58:59;;;;;;;0.20;0.20;;;19.00;53.80;;;;;;5028250;28;43464;-65
2022/12/06 06:01:26;;;;;;;0.50;0.50;;;19.00;53.80;;;;;;5043464;28;43481;-65
2022/12/06 06:03:53;;;;;;;0.50;0.40;;;18.90;53.80;;;;;;5040093;28;44768;-65
2022/12/06 06:06:20;;;;;;;0.88;0.32;;;18.90;53.80;;;;;;5043065;28;43422;-65
2022/12/06 06:08:48;;;;;;;0.52;0.52;;;18.90;53.80;;;;;;5041826;28;43531;-65
2022/12/06 06:11:15;;;;;;;0.30;0.30;;;18.90;53.90;;;;;;5040873;28;43392;-65
2022/12/06 06:13:42;;;;;;;0.63;0.35;;;18.90;53.90;;;;;;5034896;28;45021;-65
2022/12/06 06:16:09;;;;;;;1.27;0.30;;;18.90;53.90;;;;;;5036259;28;44056;-65
2022/12/06 06:18:37;;;;;;;0.50;0.50;;;18.90;54.00;;;;;;5026539;28;43436;-65
2022/12/06 06:21:04;;;;;;;1.25;0.63;;;18.90;54.00;;;;;;5042083;28;43549;-65
2022/12/06 06:23:31;;;;;;;0.52;0.50;;;18.80;54.00;;;;;;5034792;28;45124;-66
2022/12/06 06:25:59;;;;;;;0.30;0.30;;;18.80;54.20;;;;;;5030597;28;43412;-65
2022/12/06 06:28:26;;;;;;;0.25;0.25;;;18.80;53.90;;;;;;5036746;28;43404;-65
2022/12/06 06:30:53;;;;;;;0.30;0.30;;;18.90;54.00;;;;;;5027867;28;43440;-66
2022/12/06 06:33:20;;;;;;;0.30;0.30;;;18.80;54.00;;;;;;5034811;28;44800;-65
2022/12/06 06:35:48;;;;;;;0.20;0.20;;;18.80;54.00;;;;;;5035214;28;43807;-66
2022/12/06 06:38:15;;;;;;;0.40;0.40;;;18.80;53.90;;;;;;5042831;28;43466;-66
2022/12/06 06:40:42;;;;;;;0.55;0.30;;;18.80;53.80;;;;;;5038197;28;43455;-66
2022/12/06 06:43:22;;;;;;;0.38;0.38;;;18.80;53.80;;;;;;5030355;28;44814;-65
2022/12/06 06:45:56;;;;;;;0.43;0.43;;;18.80;54.00;;;;;;5029507;28;43942;-66
2022/12/06 06:48:25;;;;;;;0.30;0.30;;;18.80;53.90;;;;;;5039373;28;43474;-66
2022/12/06 06:50:52;;;;;;;0.40;0.40;;;18.80;53.90;;;;;;5025407;28;43423;-66
2022/12/06 06:53:25;;;;;;;;;;;18.80;54.00;;;;;;5023016;28;44056;-65
2022/12/06 06:55:52;;;;;;;0.20;0.20;;;18.80;54.00;;;;;;5023064;28;43687;-65
2022/12/06 06:58:20;;;;;;;0.55;0.30;;;18.70;53.80;;;;;;5038639;28;43431;-64
2022/12/06 07:00:52;;;;;;;0.40;0.40;;;18.70;53.80;;;;;;5036304;28;43482;-65
2022/12/06 07:03:20;;;;;;;0.32;0.32;;;18.70;53.90;;;;;;5032826;28;45798;-66
2022/12/06 07:05:53;;;;;;;1.25;0.50;;;18.70;54.00;;;;;;5038499;28;43531;-65
2022/12/06 07:08:20;;;;;;;0.50;0.50;;;18.70;54.00;;;;;;5028586;28;43498;-65
2022/12/06 07:10:48;;;;;;;0.57;0.57;;;18.70;53.90;;;;;;5029331;28;43384;-65
2022/12/06 07:13:17;;;;;;;1.08;0.50;;;18.80;54.00;;;;;;5033973;28;44770;-65
2022/12/06 07:15:44;;;;;;;0.50;0.40;;;18.80;54.00;;;;;;5025336;28;43441;-65
2022/12/06 07:18:11;;;;;;;0.88;0.40;;;18.70;53.90;;;;;;5027053;28;43451;-65
2022/12/06 07:20:39;;;;;;;0.38;0.38;;;18.70;53.90;;;;;;5032412;28;43545;-66
2022/12/06 07:23:06;;;;;;;0.75;0.65;;;18.70;53.90;;;;;;5033365;28;44094;-65
2022/12/06 07:25:33;;;;;;;0.50;0.50;;;18.70;53.90;;;;;;5026005;28;43847;-65
2022/12/06 07:28:00;;;;;;;0.50;0.50;;;18.70;54.00;;;;;;5038439;28;43377;-66
2022/12/06 07:30:28;;;;;;;0.82;0.70;;;18.70;53.90;;;;;;5052587;28;43555;-66
2022/12/06 07:32:56;;;;;;;0.70;0.63;;;18.70;53.90;;;;;;5028664;28;44932;-66
2022/12/06 07:35:24;;;;;;;0.65;0.63;;;18.70;53.90;;;;;;5023432;28;43464;-65
2022/12/06 07:38:11;;;;;;;0.68;0.60;;;18.80;53.80;;;;;;5041790;28;43424;-66
2022/12/06 07:40:38;;;;;;;0.70;0.70;;;18.70;53.80;;;;;;5030104;28;43526;-66
2022/12/06 07:46:12;;;;;;;1.10;0.90;;;18.70;53.90;;;;;;5030950;28;44077;-66
2022/12/06 07:48:39;;;;;;;1.33;0.73;;;18.60;53.90;;;;;;5029095;28;43462;-65
2022/12/06 07:51:07;;;;;;;0.80;0.80;;;18.60;53.90;;;;;;5039571;28;43473;-66
2022/12/06 07:53:34;;;;;;;1.08;0.70;;;18.60;53.90;;;;;;5040761;28;44171;-66
2022/12/06 07:56:06;;;;;;;0.85;0.85;;;18.60;53.90;;;;;;5033364;28;43741;-66
2022/12/06 07:58:33;;;;;;;1.05;1.05;;;18.60;53.80;;;;;;5035098;28;43420;-66
2022/12/06 08:01:02;;;;;;;1.42;0.80;;;18.60;53.80;;;;;;5025836;28;43460;-66
2022/12/06 08:03:30;;;;;;;0.90;0.90;;;18.60;53.90;;;;;;5035952;28;44683;-65
2022/12/06 08:05:58;;;;;;;1.00;0.95;;;18.50;53.80;;;;;;5029635;28;44031;-65
2022/12/06 08:08:26;;;;;;;1.33;1.23;;;18.50;54.00;;;;;;5035465;28;43489;-63
2022/12/06 08:10:59;;;;;;;0.82;0.82;;;18.60;54.00;;;;;;5036454;28;43574;-63
2022/12/06 08:13:28;;;;;;;0.90;0.90;;;18.60;54.00;;;;;;5025541;28;43470;-64
2022/12/06 08:15:55;;;;;;;1.20;1.10;;;18.60;54.00;;;;;;5032337;28;43514;-65
2022/12/06 08:18:24;;;;;;;1.55;1.10;;;18.60;54.10;;;;;;5022480;28;43454;-66
2022/12/06 08:20:52;;;;;;;2.63;1.40;;;18.70;54.00;;;;;;5027194;28;43614;-67
2022/12/06 08:23:19;;;;;;;1.35;1.25;;;18.80;53.90;;;;;;5025770;28;44862;-66
2022/12/06 08:25:54;;;;;;;1.38;1.27;;;18.90;53.70;;;;;;5030339;28;43411;-66
2022/12/06 08:28:21;;;;;;;1.58;1.48;;;19.00;53.40;;;;;;5029078;28;43368;-65
2022/12/06 08:30:49;;;;;;;1.23;1.13;;;19.10;53.30;;;;;;5025908;28;43471;-66
2022/12/06 08:33:16;;;;;;;1.92;1.10;;;19.20;53.30;;;;;;5031011;28;43795;-66
2022/12/06 08:35:43;;;;;;;1.27;1.20;;;19.30;53.10;;;;;;5024466;28;43439;-64
2022/12/06 08:38:10;;;;;;;2.05;1.20;;;19.30;53.10;;;;;;5025300;28;43987;-65
2022/12/06 08:40:38;;;;;;;1.33;1.23;;;19.50;53.00;;;;;;5028704;28;43496;-65
2022/12/06 08:43:05;;;;;;;1.30;1.20;;;19.60;52.90;;;;;;5029897;28;44094;-66
2022/12/06 08:45:33;;;;;;;1.30;1.20;;;19.70;52.80;;;;;;5025939;28;43505;-66
2022/12/06 08:48:01;;;;;;;1.20;1.10;;;19.80;52.80;;;;;;5028418;28;43429;-66
2022/12/06 08:50:28;;;;;;;4.15;1.20;;;19.90;52.60;;;;;;5029934;28;43646;-65
2022/12/06 08:52:55;;;;;;;1.88;0.95;;;20.00;52.50;;;;;;5021929;28;44900;-67
2022/12/06 08:55:23;;;;;;;1.25;1.00;;;20.10;52.60;;;;;;5026137;28;43778;-67
2022/12/06 08:57:50;;;;;;;1.63;1.30;;;20.20;52.40;;;;;;5029044;28;43460;-67
2022/12/06 09:00:17;;;;;;;1.70;1.10;;;20.20;52.30;;;;;;5025250;28;43518;-65
2022/12/06 09:02:45;;;;;;;5.05;1.00;;;20.30;52.30;;;;;;5028193;28;44731;-62
2022/12/06 09:05:12;;;;;;;3.63;1.33;;;20.50;52.60;;;;;;5028004;28;43479;-62
2022/12/06 09:07:39;;;;;;;3.25;1.02;;;20.60;52.50;;;;;;5037310;28;43434;-63
2022/12/06 09:10:07;;;;;;;3.78;1.35;;;20.70;52.40;;;;;;5028439;28;43586;-63
2022/12/06 09:12:34;;;;;;;4.13;1.30;;;20.90;51.90;;;;;;5027350;28;44195;-62
2022/12/06 09:15:02;;;;;;;2.08;1.30;;;21.00;52.10;;;;;;5027266;28;43787;-63
2022/12/06 09:17:29;;;;;;;1.73;1.20;;;21.10;51.80;;;;;;5022047;28;43468;-60
2022/12/06 09:19:56;;;;;;;2.50;1.50;;;21.20;51.70;;;;;;5030946;28;43545;-62
2022/12/06 09:22:31;;;;;;;1.50;1.40;;;21.30;51.50;;;;;;5023548;28;44977;-61
2022/12/06 09:24:58;;;;;;;1.60;1.30;;;21.40;51.60;;;;;;5023845;28;43885;-61
2022/12/06 09:27:29;;;;;;;2.70;1.20;;;21.50;51.50;;;;;;5021004;28;43441;-62
2022/12/06 09:29:56;;;;;;;3.70;1.45;;;21.50;51.50;;;;;;5023157;28;43458;-60
2022/12/06 09:32:24;;;;;;;1.65;1.33;;;21.60;51.50;;;;;;5029006;28;44846;-62
2022/12/06 09:34:51;;;;;;;2.13;1.17;;;21.60;51.40;;;;;;5028219;28;44019;-61
2022/12/06 09:37:19;;;;;;;3.35;1.45;;;21.70;51.40;;;;;;5028789;28;43374;-61
2022/12/06 09:39:50;;;;;;;1.52;1.33;;;21.70;51.10;;;;;;5028864;28;43617;-62
2022/12/06 09:42:45;;;;;;;1.60;1.30;;;21.80;51.10;;;;;;5023974;28;43985;-61
2022/12/06 09:45:21;;;;;;;2.90;1.40;;;21.80;51.00;;;;;;5032520;28;43475;-62
2022/12/06 09:48:05;;;;;;;1.67;1.25;;;21.80;51.00;;;;;;5040450;28;43479;-62
2022/12/06 09:51:00;;;;;;;2.42;1.27;;;21.80;50.80;;;;;;5027922;28;43555;-62
2022/12/06 09:54:07;;;;;;;2.15;1.15;;;21.80;50.90;;;;;;5028048;28;44672;-61
2022/12/06 09:56:54;;;;;;;2.33;1.40;;;21.80;50.90;;;;;;5024542;28;43884;-62
2022/12/06 09:59:45;;;;;;;1.25;1.15;;;21.90;51.20;;;;;;5040385;28;43405;-61
2022/12/06 10:02:34;;;;;;;1.42;1.33;;;22.00;51.00;;;;;;5041586;28;43450;-62
2022/12/06 10:05:19;;;;;;;1.95;1.30;;;22.00;51.00;;;;;;5032824;28;43782;-61
2022/12/06 10:08:25;;;;;;;1.30;1.20;;;22.00;51.00;;;;;;5039347;28;43468;-62
2022/12/06 10:10:56;;;;;;;1.88;1.35;;;22.00;50.80;;;;;;5027583;28;43506;-62
2022/12/06 10:13:56;;;;;;;1.92;1.27;;;22.00;50.70;;;;;;5025109;28;43513;-61
2022/12/06 10:16:36;;;;;;;2.42;1.30;;;22.00;50.70;;;;;;5004125;28;44886;-60
2022/12/06 10:19:21;;;;;;;1.45;1.10;;;21.90;51.10;;;;;;5026553;28;43790;-62
2022/12/06 10:22:01;;;;;;;2.10;1.10;;;21.90;51.20;;;;;;5035163;28;43538;-62
2022/12/06 10:24:43;;;;;;;2.25;1.30;;;21.90;51.00;;;;;;5031130;28;43561;-61
2022/12/06 10:27:18;;;;;;;1.60;1.17;;;21.80;51.00;;;;;;5028203;28;45069;-61
2022/12/06 10:30:09;;;;;;;2.50;1.30;;;21.80;51.00;;;;;;5028537;28;43863;-61
2022/12/06 10:32:53;;;;;;;3.15;1.58;;;21.70;50.80;;;;;;5035325;28;43558;-61
2022/12/06 10:35:28;;;;;;;1.42;1.25;;;21.70;51.00;;;;;;5029040;28;43512;-61
2022/12/06 10:38:20;;;;;;;2.30;1.05;;;21.60;51.60;;;;;;5025061;28;44382;-61
2022/12/06 10:40:59;;;;;;;3.50;1.17;;;21.60;51.10;;;;;;5025855;28;43424;-61
2022/12/06 10:43:29;;;;;;;1.10;1.10;;;21.50;51.00;;;;;;5031739;28;43433;-62
2022/12/06 10:49:32;;;;;;;1.90;1.10;;;21.50;51.20;;;;;;5025335;28;44317;-61
2022/12/06 10:52:08;;;;;;;1.02;0.90;;;21.30;52.00;;;;;;5027768;28;43423;-61
2022/12/06 10:55:03;;;;;;;1.13;0.90;;;21.30;52.10;;;;;;5033075;28;43557;-61
2022/12/06 10:57:42;;;;;;;1.00;0.90;;;21.30;51.50;;;;;;5030028;28;43491;-61
2022/12/06 11:00:24;;;;;;;2.97;1.00;;;21.20;51.60;;;;;;5030242;28;43877;-61
2022/12/06 11:03:13;;;;;;;1.23;1.10;;;21.10;51.60;;;;;;5030326;28;43483;-61
2022/12/06 11:05:47;;;;;;;2.17;1.08;;;21.10;51.70;;;;;;5029005;28;44049;-62
2022/12/06 11:08:27;;;;;;;23.15;2.10;;;21.00;51.90;;;;;;5021554;28;43938;-60
2022/12/06 11:10:56;;;;;;;26.02;3.03;;;21.10;52.20;;;;;;5027243;28;44889;-61
2022/12/06 11:13:39;;;;;;;17.17;1.90;;;21.00;52.30;;;;;;5029216;28;43500;-60
2022/12/06 11:16:08;;;;;;;11.15;1.92;;;21.00;52.10;;;;;;5023726;28;43552;-60
2022/12/06 11:18:37;;;;;;;7.07;1.40;;;21.00;52.10;;;;;;5027473;28;43434;-60
2022/12/06 11:21:30;;;;;;;8.77;1.58;;;20.90;52.20;;;;;;5030445;28;45137;-61
2022/12/06 11:24:02;;;;;;;5.72;1.45;;;20.80;52.20;;;;;;5032340;28;44087;-61
2022/12/06 11:26:37;;;;;;;9.32;1.60;;;20.80;52.40;;;;;;5029361;28;43552;-60
2022/12/06 11:29:10;;;;;;;10.25;1.95;;;20.70;52.50;;;;;;5031670;28;43433;-60
2022/12/06 11:31:42;;;;;;;7.07;1.40;;;20.70;52.60;;;;;;5025520;28;44045;-60
2022/12/06 11:34:19;;;;;;;7.60;1.42;;;20.60;52.50;;;;;;5025357;28;43957;-60
2022/12/06 11:36:50;;;;;;;4.72;1.85;;;20.60;52.60;;;;;;5027436;28;43492;-60
2022/12/06 11:39:26;;;;;;;4.75;1.60;;;20.50;52.60;;;;;;5029188;28;43483;-60
2022/12/06 11:41:55;;;;;;;4.75;1.77;;;20.50;52.70;;;;;;5031852;28;43926;-59
2022/12/06 11:44:25;;;;;;;3.05;1.60;;;20.50;52.80;;;;;;5027378;28;43499;-60
2022/12/06 11:46:56;;;;;;;5.43;1.70;;;20.50;52.80;;;;;;5029340;28;43360;-60
2022/12/06 11:49:43;;;;;;;;;;;20.50;52.80;;;;;;5032609;28;43515;-60
2022/12/06 11:52:25;;;;;;;5.47;2.13;;;20.40;52.80;;;;;;5025734;28;44962;-60
2022/12/06 11:55:15;;;;;;;3.95;2.17;;;20.40;52.90;;;;;;5027234;28;43557;-60
2022/12/06 11:57:56;;;;;;;5.03;1.80;;;20.40;52.90;;;;;;5023965;28;43444;-60
2022/12/06 12:00:25;;;;;;;4.20;1.88;;;20.40;53.00;;;;;;5029374;28;43498;-60
2022/12/06 12:02:54;;;;;;;2.05;1.60;;;20.40;53.10;;;;;;5035337;28;43987;-60
2022/12/06 12:05:35;;;;;;;2.95;1.70;;;20.30;53.00;;;;;;5024278;28;43665;-60
2022/12/06 12:08:29;;;;;;;3.08;1.60;;;20.30;52.90;;;;;;5031255;28;43582;-60
2022/12/06 12:11:01;;;;;;;3.60;1.75;;;20.30;53.00;;;;;;5031374;28;43535;-60
2022/12/06 12:13:45;;;;;;;3.92;1.60;;;20.20;53.00;;;;;;5026101;28;44010;-60
2022/12/06 12:16:22;;;;;;;2.83;1.60;;;20.20;53.00;;;;;;5036428;28;43407;-60
2022/12/06 12:19:00;;;;;;;2.80;1.67;;;20.20;53.10;;;;;;5024782;28;43381;-60
2022/12/06 12:21:39;;;;;;;4.03;1.80;;;20.20;53.20;;;;;;5021331;28;43500;-60
2022/12/06 12:24:43;;;;;;;3.13;1.60;;;20.20;53.30;;;;;;5025489;28;44960;-60
2022/12/06 12:27:38;;;;;;;3.60;1.75;;;20.10;53.20;;;;;;5025318;28;43958;-60
2022/12/06 12:30:12;;;;;;;3.55;1.88;;;20.10;53.20;;;;;;5027619;28;43626;-60
2022/12/06 12:32:39;;;;;;;4.18;1.52;;;20.10;53.20;;;;;;5023703;28;43518;-60
2022/12/06 12:35:27;;;;;;;3.53;1.60;;;20.10;53.20;;;;;;5033735;28;44891;-60
2022/12/06 12:38:09;;;;;;;3.05;1.58;;;20.10;53.30;;;;;;5022608;28;43985;-60
2022/12/06 12:41:11;;;;;;;2.03;1.40;;;20.00;53.30;;;;;;5021632;28;43474;-60
2022/12/06 12:43:44;;;;;;;3.63;1.75;;;20.00;53.40;;;;;;5011930;28;43447;-60
2022/12/06 12:46:16;;;;;;;2.63;1.65;;;20.00;53.40;;;;;;5026076;28;44801;-60
2022/12/06 12:48:46;;;;;;;2.25;1.70;;;19.90;53.50;;;;;;5022944;28;43496;-60
2022/12/06 12:51:36;;;;;;;2.42;1.63;;;19.90;53.40;;;;;;5021889;28;43364;-60
2022/12/06 12:54:18;;;;;;;2.65;1.52;;;19.90;53.50;;;;;;5023450;28;43535;-60
2022/12/06 12:56:46;;;;;;;1.67;1.48;;;19.90;53.50;;;;;;5022511;28;43796;-60
2022/12/06 12:59:22;;;;;;;1.73;1.30;;;19.90;53.60;;;;;;5024687;28;43372;-60
2022/12/06 13:02:16;;;;;;;1.60;1.50;;;19.90;53.50;;;;;;5030351;28;43399;-60
2022/12/06 13:04:52;;;;;;;2.08;1.60;;;19.90;53.50;;;;;;5025028;28;43544;-59
2022/12/06 13:07:42;;;;;;;3.17;1.80;;;19.80;53.70;;;;;;5030728;28;43809;-60
2022/12/06 13:10:30;;;;;;;5.72;1.70;;;19.80;53.70;;;;;;5020716;28;43678;-60
2022/12/06 13:13:05;;;;;;;3.53;2.42;;;19.80;53.60;;;;;;5033154;28;43528;-60
2022/12/06 13:15:32;;;;;;;2.88;1.70;;;19.80;53.70;;;;;;5026208;28;43558;-60
2022/12/06 13:18:09;;;;;;;3.13;1.80;;;19.80;53.80;;;;;;5031019;28;44026;-61
2022/12/06 13:20:37;;;;;;;2.25;2.05;;;19.80;53.70;;;;;;5032576;28;44141;-61
2022/12/06 13:23:17;;;;;;;2.67;1.80;;;19.70;53.50;;;;;;5026240;28;43454;-61
2022/12/06 13:25:49;;;;;;;3.90;1.77;;;19.80;53.60;;;;;;5035702;28;43882;-60
2022/12/06 13:28:21;;;;;;;3.45;2.20;;;19.80;53.70;;;;;;5025943;28;43899;-60
2022/12/06 13:30:55;;;;;;;2.63;1.90;;;19.70;53.60;;;;;;5031846;28;43955;-61
2022/12/06 13:33:26;;;;;;;5.20;1.65;;;19.70;53.60;;;;;;5029073;28;43531;-61
2022/12/06 13:36:09;;;;;;;5.10;2.17;;;19.70;53.70;;;;;;5028938;28;43479;-60
2022/12/06 13:38:39;;;;;;;5.18;1.70;;;19.70;53.80;;;;;;5028456;28;44103;-60
2022/12/06 13:41:13;;;;;;;2.37;1.70;;;19.60;53.70;;;;;;5032552;28;43786;-61
2022/12/06 13:43:40;;;;;;;4.78;1.83;;;19.60;54.00;;;;;;5025955;28;43413;-60